createdAt,value
2023-10-06T00:01:54.238Z,100346.94
2023-10-06T00:04:42.836Z,100343.98
2023-10-06T00:07:30.302Z,100346.20
2023-10-06T00:10:23.770Z,100351.46
2023-10-06T00:13:30.756Z,100351.76
2023-10-06T00:16:20.247Z,100354.27
2023-10-06T00:19:33.280Z,100356.77
2023-10-06T00:22:21.257Z,100355.38
2023-10-06T00:25:19.661Z,100358.77
2023-10-06T00:28:15.257Z,100356.08
2023-10-06T00:31:10.522Z,100355.57
2023-10-06T00:34:02.135Z,100354.41
2023-10-06T00:36:57.333Z,100358.89
2023-10-06T00:39:45.081Z,100357.96
2023-10-06T00:42:33.250Z,100357.00
2023-10-06T00:45:23.323Z,100353.16
2023-10-06T00:48:16.053Z,100355.71
2023-10-06T00:51:05.970Z,100347.98
2023-10-06T00:53:59.467Z,100346.08
2023-10-06T00:56:48.517Z,100347.07
2023-10-06T00:59:39.166Z,100349.89
2023-10-06T01:02:27.112Z,100346.65
2023-10-06T01:05:16.758Z,100348.23
2023-10-06T01:08:08.952Z,100350.63
2023-10-06T01:11:12.972Z,100356.05
2023-10-06T01:14:01.943Z,100356.63
2023-10-06T01:16:51.992Z,100355.96
2023-10-06T01:19:48.697Z,100356.47
2023-10-06T01:22:43.092Z,100364.83
2023-10-06T01:25:36.386Z,100364.27
2023-10-06T01:28:24.968Z,100366.23
2023-10-06T01:31:14.246Z,100366.89
2023-10-06T01:34:02.076Z,100363.30
2023-10-06T01:36:55.657Z,100359.68
2023-10-06T01:39:44.712Z,100357.61
2023-10-06T01:42:32.446Z,100360.33
2023-10-06T01:45:23.236Z,100360.81
2023-10-06T01:48:15.071Z,100367.94
2023-10-06T01:51:02.850Z,100370.23
2023-10-06T01:53:51.273Z,100371.69
2023-10-06T01:56:41.647Z,100370.23
2023-10-06T01:59:29.364Z,100370.39
2023-10-06T02:02:20.045Z,100366.62
2023-10-06T02:05:13.698Z,100371.77
2023-10-06T02:08:02.054Z,100374.90
2023-10-06T02:10:53.431Z,100373.04
2023-10-06T02:13:41.266Z,100372.67
2023-10-06T02:16:29.167Z,100375.63
2023-10-06T02:19:19.675Z,100375.73
2023-10-06T02:22:07.988Z,100382.00
2023-10-06T02:24:56.041Z,100383.91
2023-10-06T02:27:48.646Z,100385.46
2023-10-06T02:30:38.459Z,100393.04
2023-10-06T02:33:26.383Z,20079.18
2023-10-06T02:36:19.020Z,-1.00
2023-10-06T02:39:10.331Z,-1.00
2023-10-06T02:41:59.504Z,-1.00
2023-10-06T02:44:47.978Z,-1.00
2023-10-06T02:47:37.107Z,-1.00
2023-10-06T02:50:25.262Z,-1.00
2023-10-06T02:53:21.417Z,-1.00
2023-10-06T02:56:10.391Z,-1.00
2023-10-06T02:59:08.830Z,-1.00
2023-10-06T03:02:01.033Z,-1.00
2023-10-06T03:04:56.115Z,-1.00
2023-10-06T03:07:51.679Z,-1.00
2023-10-06T03:10:44.519Z,-1.00
2023-10-06T03:13:37.794Z,-1.00
2023-10-06T03:16:27.116Z,-1.00
2023-10-06T03:19:14.553Z,-1.00
2023-10-06T03:22:07.900Z,-1.00
2023-10-06T03:25:01.715Z,-1.00
2023-10-06T03:27:53.935Z,-1.00
2023-10-06T03:30:42.925Z,-1.00
2023-10-06T03:33:31.224Z,-1.00
2023-10-06T03:36:27.577Z,-1.00
2023-10-06T03:39:23.099Z,-1.00
2023-10-06T03:42:19.059Z,-1.00
2023-10-06T03:45:20.124Z,-1.00
2023-10-06T03:48:13.933Z,-1.00
2023-10-06T03:51:03.407Z,-1.00
2023-10-06T03:53:51.092Z,-1.00
2023-10-06T03:56:38.660Z,-1.00
2023-10-06T03:59:26.098Z,-1.00
2023-10-06T04:02:14.510Z,-1.00
2023-10-06T04:05:06.424Z,-1.00
2023-10-06T04:07:54.194Z,-1.00
2023-10-06T04:10:43.838Z,-1.00
2023-10-06T04:13:31.439Z,-1.00
2023-10-06T04:16:20.860Z,-1.00
2023-10-06T04:19:08.677Z,-1.00
2023-10-06T04:21:56.713Z,-1.00
2023-10-06T04:24:45.988Z,-1.00
2023-10-06T04:27:34.054Z,-1.00
2023-10-06T04:30:22.614Z,-1.00
2023-10-06T04:33:15.439Z,-1.00
2023-10-06T04:36:09.109Z,-1.00
2023-10-06T04:38:58.186Z,-1.00
2023-10-06T04:41:46.077Z,-1.00
2023-10-06T04:44:35.869Z,-1.00
2023-10-06T04:47:23.753Z,-1.00
2023-10-06T04:50:13.255Z,-1.00
2023-10-06T04:53:02.162Z,-1.00
2023-10-06T04:55:49.642Z,-1.00
2023-10-06T04:58:37.962Z,-1.00
2023-10-06T05:01:31.727Z,-1.00
2023-10-06T05:04:19.300Z,-1.00
2023-10-06T05:07:07.625Z,-1.00
2023-10-06T05:09:56.915Z,-1.00
2023-10-06T05:12:44.416Z,-1.00
2023-10-06T05:15:32.120Z,-1.00
2023-10-06T05:18:19.659Z,-1.00
2023-10-06T05:21:10.719Z,-1.00
2023-10-06T05:23:58.344Z,-1.00
2023-10-06T05:26:46.095Z,-1.00
2023-10-06T05:29:37.364Z,-1.00
2023-10-06T05:32:25.691Z,-1.00
2023-10-06T05:35:16.328Z,-1.00
2023-10-06T05:38:14.552Z,-1.00
2023-10-06T05:41:03.608Z,-1.00
2023-10-06T05:43:51.316Z,-1.00
2023-10-06T05:46:39.153Z,-1.00
2023-10-06T05:49:26.804Z,-1.00
2023-10-06T05:52:14.736Z,-1.00
2023-10-06T05:55:06.170Z,-1.00
2023-10-06T05:57:57.185Z,-1.00
2023-10-06T06:00:52.462Z,-1.00
2023-10-06T06:03:46.595Z,-1.00
2023-10-06T06:06:37.457Z,-1.00
2023-10-06T06:09:25.600Z,-1.00
2023-10-06T06:12:13.252Z,-1.00
2023-10-06T06:15:00.989Z,-1.00
2023-10-06T06:17:48.779Z,-1.00
2023-10-06T06:20:42.579Z,-1.00
2023-10-06T06:23:34.868Z,-1.00
2023-10-06T06:26:22.485Z,-1.00
2023-10-06T06:29:10.967Z,-1.00
2023-10-06T06:31:58.835Z,-1.00
2023-10-06T06:34:46.530Z,-1.00
2023-10-06T06:37:35.123Z,-1.00
2023-10-06T06:40:22.855Z,-1.00
2023-10-06T06:43:11.210Z,-1.00
2023-10-06T06:46:00.242Z,-1.00
2023-10-06T06:48:48.214Z,-1.00
2023-10-06T06:51:36.727Z,-1.00
2023-10-06T06:54:25.264Z,-1.00
2023-10-06T06:57:14.463Z,-1.00
2023-10-06T07:00:10.122Z,-1.00
2023-10-06T07:03:00.271Z,-1.00
2023-10-06T07:05:48.580Z,-1.00
2023-10-06T07:08:35.951Z,-1.00
2023-10-06T07:11:23.589Z,-1.00
2023-10-06T07:14:11.575Z,-1.00
2023-10-06T07:16:59.167Z,-1.00
2023-10-06T07:19:47.101Z,-1.00
2023-10-06T07:22:35.418Z,-1.00
2023-10-06T07:25:25.775Z,-1.00
2023-10-06T07:28:13.717Z,-1.00
2023-10-06T07:31:01.275Z,-1.00
2023-10-06T07:33:48.823Z,-1.00
2023-10-06T07:36:37.095Z,-1.00
2023-10-06T07:39:24.586Z,-1.00
2023-10-06T07:42:14.574Z,-1.00
2023-10-06T07:45:06.220Z,-1.00
2023-10-06T07:47:55.250Z,-1.00
2023-10-06T07:50:43.025Z,-1.00
2023-10-06T07:53:30.412Z,-1.00
2023-10-06T07:56:20.239Z,-1.00
2023-10-06T07:59:07.870Z,-1.00
2023-10-06T08:01:55.550Z,-1.00
2023-10-06T08:04:43.258Z,-1.00
2023-10-06T08:07:32.016Z,-1.00
2023-10-06T08:10:20.570Z,-1.00
2023-10-06T08:13:09.234Z,-1.00
2023-10-06T08:15:56.780Z,-1.00
2023-10-06T08:18:44.243Z,-1.00
2023-10-06T08:21:31.661Z,-1.00
2023-10-06T08:24:19.139Z,-1.00
2023-10-06T08:27:09.095Z,-1.00
2023-10-06T08:29:56.837Z,-1.00
2023-10-06T08:32:50.444Z,-1.00
2023-10-06T08:35:38.131Z,-1.00
2023-10-06T08:38:25.893Z,-1.00
2023-10-06T08:41:14.206Z,-1.00
2023-10-06T08:44:04.332Z,-1.00
2023-10-06T08:46:53.156Z,-1.00
2023-10-06T08:49:42.139Z,-1.00
2023-10-06T08:52:31.936Z,-1.00
2023-10-06T08:55:29.133Z,-1.00
2023-10-06T08:58:18.942Z,-1.00
2023-10-06T09:01:07.624Z,-1.00
2023-10-06T09:03:56.596Z,-1.00
2023-10-06T09:07:09.892Z,-1.00
2023-10-06T09:09:57.641Z,-1.00
2023-10-06T09:12:47.220Z,-1.00
2023-10-06T09:15:41.211Z,-1.00
2023-10-06T09:18:28.930Z,-1.00
2023-10-06T09:21:21.164Z,-1.00
2023-10-06T09:24:20.707Z,-1.00
2023-10-06T09:27:22.882Z,-1.00
2023-10-06T09:30:14.603Z,-1.00
2023-10-06T09:33:03.990Z,-1.00
2023-10-06T09:36:14.006Z,-1.00
2023-10-06T09:39:04.461Z,-1.00
2023-10-06T09:41:55.408Z,-1.00
2023-10-06T09:44:46.151Z,-1.00
2023-10-06T09:47:40.135Z,-1.00
2023-10-06T09:50:29.755Z,-1.00
2023-10-06T09:53:18.185Z,-1.00
2023-10-06T09:56:08.844Z,-1.00
2023-10-06T09:58:56.871Z,-1.00
2023-10-06T10:01:49.375Z,-1.00
2023-10-06T10:04:37.100Z,-1.00
2023-10-06T10:07:24.634Z,-1.00
2023-10-06T10:10:12.581Z,-1.00
2023-10-06T10:13:45.264Z,-1.00
2023-10-06T10:17:08.454Z,-1.00
2023-10-06T10:19:57.114Z,-1.00
2023-10-06T10:22:44.766Z,-1.00
2023-10-06T10:25:32.482Z,-1.00
2023-10-06T10:28:28.591Z,-1.00
2023-10-06T10:31:19.596Z,-1.00
2023-10-06T10:34:24.447Z,-1.00
2023-10-06T10:37:13.560Z,-1.00
2023-10-06T10:40:01.134Z,-1.00
2023-10-06T10:42:56.771Z,-1.00
2023-10-06T10:45:45.458Z,-1.00
2023-10-06T10:48:38.448Z,-1.00
2023-10-06T10:51:27.005Z,-1.00
2023-10-06T10:54:15.322Z,-1.00
2023-10-06T10:57:07.441Z,-1.00
2023-10-06T11:00:10.255Z,-1.00
2023-10-06T11:02:58.965Z,-1.00
2023-10-06T11:05:47.160Z,-1.00
2023-10-06T11:08:41.245Z,-1.00
2023-10-06T11:11:29.356Z,-1.00
2023-10-06T11:14:17.397Z,-1.00
2023-10-06T11:17:06.748Z,-1.00
2023-10-06T11:20:24.118Z,-1.00
2023-10-06T11:23:13.352Z,-1.00
2023-10-06T11:26:03.811Z,-1.00
2023-10-06T11:28:51.539Z,-1.00
2023-10-06T11:31:40.669Z,-1.00
2023-10-06T11:34:30.697Z,-1.00
2023-10-06T11:37:26.606Z,-1.00
2023-10-06T11:40:16.375Z,-1.00
2023-10-06T11:43:13.575Z,-1.00
2023-10-06T11:46:06.644Z,-1.00
2023-10-06T11:49:08.849Z,-1.00
2023-10-06T11:51:58.270Z,-1.00
2023-10-06T11:54:47.752Z,-1.00
2023-10-06T11:57:53.020Z,-1.00
2023-10-06T12:00:47.225Z,-1.00
2023-10-06T12:03:43.784Z,-1.00
2023-10-06T12:06:42.131Z,-1.00
2023-10-06T12:09:36.509Z,-1.00
2023-10-06T12:12:25.298Z,-1.00
2023-10-06T12:15:17.141Z,-1.00
2023-10-06T12:18:05.809Z,-1.00
2023-10-06T12:20:53.689Z,-1.00
2023-10-06T12:23:42.896Z,-1.00
2023-10-06T12:26:34.695Z,-1.00
2023-10-06T12:29:22.617Z,-1.00
2023-10-06T12:32:10.141Z,-1.00
2023-10-06T12:35:00.930Z,-1.00
2023-10-06T12:37:50.076Z,-1.00
2023-10-06T12:40:39.670Z,-1.00
2023-10-06T12:43:27.327Z,-1.00
2023-10-06T12:46:15.119Z,-1.00
2023-10-06T12:49:08.295Z,-1.00
2023-10-06T12:51:56.599Z,-1.00
2023-10-06T12:54:45.792Z,-1.00
2023-10-06T12:57:36.344Z,-1.00
2023-10-06T13:00:24.919Z,-1.00
2023-10-06T13:03:18.849Z,-1.00
2023-10-06T13:06:07.334Z,-1.00
2023-10-06T13:08:55.458Z,-1.00
2023-10-06T13:11:43.109Z,-1.00
2023-10-06T13:14:32.445Z,-1.00
2023-10-06T13:17:20.398Z,-1.00
2023-10-06T13:20:15.037Z,-1.00
2023-10-06T13:23:06.211Z,-1.00
2023-10-06T13:25:54.873Z,-1.00
2023-10-06T13:28:43.383Z,-1.00
2023-10-06T13:31:32.350Z,-1.00
2023-10-06T13:34:20.113Z,-1.00
2023-10-06T13:37:08.612Z,-1.00
2023-10-06T13:39:56.219Z,-1.00
2023-10-06T13:42:49.609Z,-1.00
2023-10-06T13:45:37.019Z,-1.00
2023-10-06T13:48:27.774Z,-1.00
2023-10-06T13:51:18.191Z,-1.00
2023-10-06T13:54:07.027Z,-1.00
2023-10-06T13:58:41.109Z,99766.55
2023-10-06T14:01:28.571Z,99761.05
2023-10-06T14:04:15.799Z,99763.15
2023-10-06T14:07:06.252Z,99757.33
2023-10-06T14:09:54.988Z,99753.41
2023-10-06T14:12:45.557Z,99741.58
2023-10-06T14:15:41.966Z,99719.12
2023-10-06T14:18:33.299Z,99706.33
2023-10-06T14:21:20.075Z,99705.14
2023-10-06T14:24:11.566Z,99695.57
2023-10-06T14:26:59.548Z,99696.94
2023-10-06T14:29:46.364Z,99695.42
2023-10-06T14:32:45.872Z,99696.44
2023-10-06T14:35:59.984Z,99692.88
2023-10-06T14:38:47.141Z,99691.67
2023-10-06T14:41:52.470Z,99688.33
2023-10-06T14:44:58.323Z,99684.56
2023-10-06T14:47:45.126Z,99681.66
2023-10-06T14:50:31.777Z,99675.83
2023-10-06T14:53:18.865Z,99667.67
2023-10-06T14:56:08.718Z,99668.27
2023-10-06T14:58:56.636Z,99659.45
2023-10-06T15:01:43.720Z,99660.45
2023-10-06T15:04:30.885Z,99650.23
2023-10-06T15:07:17.380Z,99643.41
2023-10-06T15:10:04.989Z,99636.98
2023-10-06T15:12:52.581Z,99638.46
2023-10-06T15:15:44.958Z,99637.11
2023-10-06T15:18:31.900Z,99641.60
2023-10-06T15:21:24.137Z,99646.59
2023-10-06T15:24:15.084Z,99647.23
2023-10-06T15:27:07.041Z,99639.07
2023-10-06T15:29:54.325Z,99626.84
2023-10-06T15:32:41.369Z,99624.26
2023-10-06T15:35:36.914Z,99626.38
2023-10-06T15:38:24.894Z,99615.08
2023-10-06T15:41:13.649Z,99609.62
2023-10-06T15:44:03.705Z,99604.30
2023-10-06T15:46:54.661Z,99602.61
2023-10-06T15:49:44.681Z,99597.30
2023-10-06T15:52:33.644Z,99594.55
2023-10-06T15:55:20.690Z,99587.23
2023-10-06T15:58:08.201Z,99582.85
2023-10-06T16:00:56.601Z,99587.04
2023-10-06T16:03:47.989Z,99587.23
2023-10-06T16:06:38.126Z,99578.38
2023-10-06T16:09:25.138Z,99576.19
2023-10-06T16:12:14.329Z,99568.98
2023-10-06T16:15:01.801Z,99566.66
2023-10-06T16:17:49.616Z,99567.58
2023-10-06T16:20:36.718Z,99566.39
2023-10-06T16:23:26.716Z,99562.55
2023-10-06T16:26:15.507Z,99554.63
2023-10-06T16:29:04.254Z,99550.06
2023-10-06T16:31:51.359Z,99551.70
2023-10-06T16:34:38.652Z,99547.19
2023-10-06T16:37:25.986Z,99542.01
2023-10-06T16:40:14.081Z,99540.10
2023-10-06T16:43:01.558Z,99528.09
2023-10-06T16:45:50.383Z,99530.46
2023-10-06T16:48:38.774Z,99520.05
2023-10-06T16:51:25.786Z,99516.32
2023-10-06T16:54:13.204Z,99510.77
2023-10-06T16:57:01.758Z,99504.69
2023-10-06T16:59:48.927Z,99501.14
2023-10-06T17:02:37.719Z,99503.39
2023-10-06T17:05:27.090Z,99503.80
2023-10-06T17:08:14.072Z,99501.21
2023-10-06T17:11:23.177Z,99499.79
2023-10-06T17:14:11.706Z,99488.56
2023-10-06T17:16:58.113Z,99479.30
2023-10-06T17:19:44.782Z,99467.41
2023-10-06T17:22:32.153Z,99463.51
2023-10-06T17:25:20.440Z,99468.63
2023-10-06T17:28:08.453Z,99455.58
2023-10-06T17:31:01.123Z,99450.54
2023-10-06T17:33:52.716Z,99444.08
2023-10-06T17:36:40.034Z,99445.12
2023-10-06T17:39:28.181Z,99440.50
2023-10-06T17:42:14.888Z,99435.17
2023-10-06T17:45:04.960Z,99425.37
2023-10-06T17:47:53.576Z,99422.02
2023-10-06T17:50:48.509Z,99415.80
2023-10-06T17:53:34.936Z,99413.41
2023-10-06T17:56:21.853Z,99421.23
2023-10-06T17:59:11.128Z,99410.05
2023-10-06T18:01:58.171Z,99398.81
2023-10-06T18:04:51.932Z,99387.56
2023-10-06T18:07:38.995Z,99383.59
2023-10-06T18:10:26.118Z,99378.80
2023-10-06T18:13:13.340Z,99369.38
2023-10-06T18:16:08.660Z,99373.75
2023-10-06T18:18:55.402Z,99363.73
2023-10-06T18:21:42.145Z,99363.94
2023-10-06T18:24:29.529Z,99358.16
2023-10-06T18:27:16.818Z,99343.45
2023-10-06T18:30:06.974Z,99337.05
2023-10-06T18:32:54.412Z,99331.78
2023-10-06T18:35:41.286Z,99327.91
2023-10-06T18:38:28.616Z,99327.89
2023-10-06T18:41:15.462Z,99308.05
2023-10-06T18:44:02.354Z,99310.23
2023-10-06T18:46:49.665Z,99301.58
2023-10-06T18:49:37.585Z,99296.13
2023-10-06T18:52:26.450Z,99295.77
2023-10-06T18:55:18.968Z,99293.10
2023-10-06T18:58:09.811Z,99284.34
2023-10-06T19:00:58.104Z,99289.52
2023-10-06T19:03:45.243Z,99282.23
2023-10-06T19:06:34.088Z,99273.95
2023-10-06T19:09:21.094Z,99267.66
2023-10-06T19:12:09.426Z,99262.21
2023-10-06T19:14:56.841Z,99260.22
2023-10-06T19:17:44.883Z,99255.27
2023-10-06T19:20:32.151Z,99251.80
2023-10-06T19:23:19.237Z,99246.89
2023-10-06T19:26:09.993Z,99240.56
2023-10-06T19:28:57.997Z,99232.48
2023-10-06T19:31:48.385Z,99233.58
2023-10-06T19:34:35.581Z,99225.98
